createdAt,value
2018-04-02T00:00:14.610Z,20.70
2018-04-02T00:01:14.763Z,19.50
2018-04-02T00:02:14.894Z,20.00
2018-04-02T00:03:15.035Z,21.10
2018-04-02T00:04:15.162Z,21.50
2018-04-02T00:05:15.292Z,21.10
2018-04-02T00:06:15.428Z,22.30
2018-04-02T00:07:15.568Z,21.00
2018-04-02T00:08:15.706Z,20.70
2018-04-02T00:09:15.838Z,21.70
2018-04-02T00:10:15.973Z,20.10
2018-04-02T00:11:16.109Z,20.50
2018-04-02T00:12:16.248Z,22.50
2018-04-02T00:13:16.373Z,21.60
2018-04-02T00:14:16.508Z,21.30
2018-04-02T00:15:16.649Z,21.60
2018-04-02T00:16:16.770Z,21.20
2018-04-02T00:17:16.901Z,20.90
2018-04-02T00:18:17.038Z,22.40
2018-04-02T00:19:17.168Z,21.20
2018-04-02T00:20:17.300Z,20.50
2018-04-02T00:21:17.435Z,20.60
2018-04-02T00:22:17.571Z,20.70
2018-04-02T00:23:17.699Z,21.30
2018-04-02T00:24:17.840Z,20.90
2018-04-02T00:25:17.976Z,22.40
2018-04-02T00:26:18.127Z,20.10
2018-04-02T00:27:18.255Z,21.00
2018-04-02T00:28:18.390Z,19.80
2018-04-02T00:29:18.520Z,20.50
2018-04-02T00:30:18.655Z,19.10
2018-04-02T00:31:18.790Z,19.60
2018-04-02T00:32:18.929Z,19.30
2018-04-02T00:33:19.060Z,18.90
2018-04-02T00:34:19.196Z,19.50
2018-04-02T00:35:19.326Z,19.30
2018-04-02T00:36:19.465Z,19.90
2018-04-02T00:37:19.607Z,20.10
2018-04-02T00:38:19.734Z,20.80
2018-04-02T00:39:19.871Z,20.00
2018-04-02T00:40:20.003Z,19.50
2018-04-02T00:41:20.137Z,20.00
2018-04-02T00:42:20.280Z,19.50
2018-04-02T00:43:20.412Z,19.20
2018-04-02T00:44:20.544Z,18.80
2018-04-02T00:45:20.694Z,19.70
2018-04-02T00:46:20.823Z,19.50
2018-04-02T00:47:20.956Z,20.40
2018-04-02T00:48:21.086Z,18.80
2018-04-02T00:49:21.219Z,19.10
2018-04-02T00:50:21.348Z,20.20
2018-04-02T00:51:21.484Z,20.40
2018-04-02T00:52:21.619Z,18.70
2018-04-02T00:53:21.749Z,18.40
2018-04-02T00:54:21.883Z,19.70
2018-04-02T00:55:22.015Z,19.50
2018-04-02T00:56:22.146Z,21.10
2018-04-02T00:57:22.280Z,19.10
2018-04-02T00:58:22.413Z,20.70
2018-04-02T00:59:22.544Z,20.80
2018-04-02T01:00:22.678Z,20.90
2018-04-02T01:01:22.810Z,21.40
2018-04-02T01:02:22.945Z,20.90
2018-04-02T01:03:23.073Z,21.10
2018-04-02T01:04:23.210Z,22.00
2018-04-02T01:05:23.364Z,20.90
2018-04-02T01:06:23.476Z,21.90
2018-04-02T01:07:23.606Z,20.60
2018-04-02T01:08:23.742Z,20.70
2018-04-02T01:09:23.887Z,21.20
2018-04-02T01:10:24.031Z,21.20
2018-04-02T01:11:24.210Z,20.40
2018-04-02T01:12:24.363Z,21.90
2018-04-02T01:13:24.499Z,20.70
2018-04-02T01:14:24.638Z,21.40
2018-04-02T01:15:24.772Z,21.50
2018-04-02T01:16:24.918Z,21.70
2018-04-02T01:17:25.056Z,21.00
2018-04-02T01:18:25.205Z,20.80
2018-04-02T01:19:25.341Z,21.30
2018-04-02T01:20:25.468Z,20.70
2018-04-02T01:21:25.602Z,21.30
2018-04-02T01:22:25.743Z,21.20
2018-04-02T01:23:25.876Z,21.00
2018-04-02T01:24:26.011Z,21.60
2018-04-02T01:25:26.138Z,20.90
2018-04-02T01:26:26.280Z,20.80
2018-04-02T01:27:26.420Z,22.10
2018-04-02T01:28:26.549Z,21.90
2018-04-02T01:29:26.685Z,21.50
2018-04-02T01:30:26.818Z,21.90
2018-04-02T01:31:26.949Z,21.60
2018-04-02T01:32:27.094Z,20.90
2018-04-02T01:33:27.225Z,21.90
2018-04-02T01:34:27.359Z,22.00
2018-04-02T01:35:27.504Z,22.50
2018-04-02T01:36:27.638Z,22.00
2018-04-02T01:37:27.769Z,21.80
2018-04-02T01:38:27.903Z,21.80
2018-04-02T01:39:28.062Z,21.40
2018-04-02T01:40:28.204Z,21.70
2018-04-02T01:41:28.337Z,21.00
2018-04-02T01:42:28.473Z,21.10
2018-04-02T01:43:28.620Z,21.40
2018-04-02T01:44:28.747Z,21.50
2018-04-02T01:45:28.884Z,22.10
2018-04-02T01:46:29.016Z,21.10
2018-04-02T01:47:29.156Z,22.00
2018-04-02T01:48:29.291Z,21.10
2018-04-02T01:49:29.420Z,22.10
2018-04-02T01:50:29.555Z,22.00
2018-04-02T01:51:29.683Z,22.60
2018-04-02T01:52:29.814Z,22.80
2018-04-02T01:53:29.952Z,23.00
2018-04-02T01:54:30.084Z,22.80
2018-04-02T01:55:31.156Z,22.10
2018-04-02T01:56:30.348Z,24.30
2018-04-02T01:57:30.491Z,22.10
2018-04-02T01:58:30.629Z,23.40
2018-04-02T01:59:30.760Z,26.20
2018-04-02T02:00:30.892Z,24.70
2018-04-02T02:01:31.031Z,23.30
2018-04-02T02:02:31.160Z,21.20
2018-04-02T02:03:31.478Z,21.50
2018-04-02T02:04:31.455Z,21.90
2018-04-02T02:05:31.600Z,22.30
2018-04-02T02:06:31.728Z,21.50
2018-04-02T02:07:31.872Z,21.20
2018-04-02T02:08:32.003Z,20.90
2018-04-02T02:09:32.184Z,23.40
2018-04-02T02:10:32.310Z,22.20
2018-04-02T02:11:32.438Z,22.20
2018-04-02T02:12:32.613Z,22.40
2018-04-02T02:13:32.746Z,21.70
2018-04-02T02:14:32.882Z,21.90
2018-04-02T02:15:32.999Z,21.60
2018-04-02T02:16:33.131Z,21.60
2018-04-02T02:17:33.258Z,22.60
2018-04-02T02:18:33.391Z,21.70
2018-04-02T02:19:33.542Z,21.30
2018-04-02T02:20:33.673Z,21.20
2018-04-02T02:21:33.807Z,20.50
2018-04-02T02:22:33.949Z,22.10
2018-04-02T02:23:34.081Z,22.40
2018-04-02T02:24:34.213Z,21.20
2018-04-02T02:25:34.342Z,21.60
2018-04-02T02:26:34.481Z,21.60
2018-04-02T02:27:34.607Z,22.40
2018-04-02T02:28:34.773Z,22.50
2018-04-02T02:29:34.899Z,21.60
2018-04-02T02:30:35.042Z,22.80
2018-04-02T02:31:35.204Z,22.70
2018-04-02T02:32:35.335Z,21.50
2018-04-02T02:33:35.463Z,22.60
2018-04-02T02:34:35.602Z,21.90
2018-04-02T02:35:35.732Z,21.10
2018-04-02T02:36:35.864Z,23.50
2018-04-02T02:37:35.994Z,23.50
2018-04-02T02:38:36.137Z,21.50
2018-04-02T02:39:36.269Z,22.80
2018-04-02T02:40:36.406Z,22.80
2018-04-02T02:41:36.540Z,22.10
2018-04-02T02:42:36.669Z,21.90
2018-04-02T02:43:36.800Z,22.30
2018-04-02T02:44:36.938Z,23.70
2018-04-02T02:45:37.068Z,21.50
2018-04-02T02:46:37.196Z,22.20
2018-04-02T02:47:37.331Z,22.80
2018-04-02T02:48:37.460Z,22.30
2018-04-02T02:49:37.592Z,23.30
2018-04-02T02:50:37.737Z,22.90
2018-04-02T02:51:37.862Z,24.20
2018-04-02T02:52:37.999Z,24.50
2018-04-02T02:53:38.135Z,25.30
2018-04-02T02:54:38.271Z,24.70
2018-04-02T02:55:38.405Z,24.00
2018-04-02T02:56:38.544Z,24.70
2018-04-02T02:57:38.667Z,24.50
2018-04-02T02:58:38.796Z,22.70
2018-04-02T02:59:38.932Z,24.20
2018-04-02T03:00:39.056Z,23.50
2018-04-02T03:01:39.193Z,24.20
2018-04-02T03:02:39.318Z,24.50
2018-04-02T03:03:39.459Z,25.40
2018-04-02T03:04:39.595Z,24.40
2018-04-02T03:05:39.720Z,26.60
2018-04-02T03:06:39.848Z,25.20
2018-04-02T03:07:40.087Z,26.50
2018-04-02T03:08:40.085Z,26.70
2018-04-02T03:09:40.216Z,27.60
2018-04-02T03:10:40.349Z,27.00
2018-04-02T03:11:40.501Z,28.40
2018-04-02T03:12:40.635Z,27.60
2018-04-02T03:13:40.772Z,28.70
2018-04-02T03:14:40.904Z,30.50
2018-04-02T03:15:41.043Z,30.70
2018-04-02T03:16:41.173Z,32.50
2018-04-02T03:17:41.306Z,35.10
2018-04-02T03:18:41.439Z,34.30
2018-04-02T03:19:41.583Z,34.80
2018-04-02T03:20:41.714Z,34.20
2018-04-02T03:21:41.847Z,37.50
2018-04-02T03:22:41.977Z,35.20
2018-04-02T03:23:42.139Z,33.30
2018-04-02T03:24:42.267Z,34.40
2018-04-02T03:25:42.400Z,33.60
2018-04-02T03:26:42.531Z,35.00
2018-04-02T03:27:42.688Z,35.30
2018-04-02T03:28:42.816Z,34.00
2018-04-02T03:29:42.945Z,34.80
2018-04-02T03:30:43.076Z,35.40
2018-04-02T03:31:43.208Z,34.20
2018-04-02T03:32:43.338Z,33.70
2018-04-02T03:33:43.471Z,33.60
2018-04-02T03:34:43.624Z,33.70
2018-04-02T03:35:43.754Z,33.60
2018-04-02T03:36:43.899Z,34.00
2018-04-02T03:37:44.035Z,34.80
2018-04-02T03:38:44.173Z,34.30
2018-04-02T03:39:44.300Z,34.50
2018-04-02T03:40:44.441Z,33.50
2018-04-02T03:41:44.581Z,35.10
2018-04-02T03:42:44.712Z,35.60
2018-04-02T03:43:44.844Z,36.50
2018-04-02T03:44:44.979Z,34.90
2018-04-02T03:45:45.115Z,35.90
2018-04-02T03:46:45.242Z,36.20
2018-04-02T03:47:45.371Z,34.40
2018-04-02T03:48:45.502Z,33.90
2018-04-02T03:49:45.641Z,34.40
2018-04-02T03:50:45.760Z,34.50
2018-04-02T03:51:45.904Z,35.10
2018-04-02T03:52:46.030Z,34.50
2018-04-02T03:53:46.162Z,34.50
2018-04-02T03:54:46.294Z,34.90
2018-04-02T03:55:46.432Z,33.50
2018-04-02T03:56:46.579Z,32.70
2018-04-02T03:57:46.718Z,33.70
2018-04-02T03:58:47.222Z,34.00
2018-04-02T03:59:46.925Z,34.40
2018-04-02T04:00:47.069Z,32.30
2018-04-02T04:01:47.196Z,33.30
2018-04-02T04:02:47.346Z,34.20
2018-04-02T04:03:47.466Z,35.20
2018-04-02T04:04:47.612Z,34.90
2018-04-02T04:05:47.740Z,34.20
2018-04-02T04:06:47.909Z,34.20
2018-04-02T04:07:48.059Z,33.80
2018-04-02T04:08:48.252Z,34.80
2018-04-02T04:09:48.349Z,35.30
2018-04-02T04:10:48.476Z,34.70
2018-04-02T04:11:48.612Z,36.20
2018-04-02T04:12:48.799Z,37.00
2018-04-02T04:13:48.889Z,36.70
2018-04-02T04:14:49.024Z,36.30
2018-04-02T04:15:49.163Z,38.00
2018-04-02T04:16:49.323Z,37.00
2018-04-02T04:17:49.440Z,36.20
2018-04-02T04:18:49.573Z,38.70
2018-04-02T04:19:49.711Z,38.00
2018-04-02T04:20:49.838Z,36.60
2018-04-02T04:21:49.972Z,35.20
2018-04-02T04:22:50.127Z,36.10
2018-04-02T04:23:50.260Z,35.80
2018-04-02T04:24:50.394Z,36.00
2018-04-02T04:25:50.568Z,37.20
2018-04-02T04:26:50.697Z,36.30
2018-04-02T04:27:50.828Z,35.80
2018-04-02T04:28:50.960Z,38.50
2018-04-02T04:29:51.095Z,35.80
2018-04-02T04:30:51.225Z,35.20
2018-04-02T04:31:51.361Z,35.80
2018-04-02T04:32:51.488Z,35.70
2018-04-02T04:33:51.627Z,38.30
2018-04-02T04:34:51.763Z,35.90
2018-04-02T04:35:51.893Z,37.20
2018-04-02T04:36:52.029Z,37.70
2018-04-02T04:37:52.160Z,38.40
2018-04-02T04:38:52.297Z,36.10
2018-04-02T04:39:52.426Z,37.50
2018-04-02T04:40:52.564Z,36.50
2018-04-02T04:41:52.695Z,37.10
2018-04-02T04:42:52.829Z,37.20
2018-04-02T04:43:52.962Z,36.00
2018-04-02T04:44:53.131Z,37.20
2018-04-02T04:45:53.229Z,38.60
2018-04-02T04:46:53.364Z,38.30
2018-04-02T04:47:53.494Z,38.30
2018-04-02T04:48:53.625Z,37.10
2018-04-02T04:49:53.761Z,36.80
2018-04-02T04:50:53.894Z,39.00
2018-04-02T04:51:54.032Z,36.60
2018-04-02T04:52:54.164Z,38.30
2018-04-02T04:53:54.301Z,35.50
2018-04-02T04:54:54.448Z,37.20
2018-04-02T04:55:54.583Z,38.30
2018-04-02T04:56:54.715Z,35.30
2018-04-02T04:57:54.843Z,37.00
2018-04-02T04:58:54.994Z,36.60
2018-04-02T04:59:55.128Z,36.30
2018-04-02T05:00:55.263Z,36.80
2018-04-02T05:01:55.399Z,34.10
2018-04-02T05:02:55.531Z,36.80
2018-04-02T05:03:55.668Z,35.40
2018-04-02T05:04:55.792Z,37.30
2018-04-02T05:05:55.936Z,36.80
2018-04-02T05:06:56.099Z,35.80
2018-04-02T05:07:56.222Z,36.00
2018-04-02T05:08:56.356Z,35.60
2018-04-02T05:09:56.493Z,37.30
2018-04-02T05:10:56.630Z,35.50
2018-04-02T05:11:56.756Z,36.60
2018-04-02T05:12:56.889Z,37.00
2018-04-02T05:13:57.018Z,38.70
2018-04-02T05:14:57.172Z,35.30
2018-04-02T05:15:57.300Z,37.30
2018-04-02T05:16:57.427Z,35.80
2018-04-02T05:17:57.562Z,36.50
2018-04-02T05:18:57.724Z,41.40
2018-04-02T05:19:57.864Z,37.60
2018-04-02T05:20:57.997Z,37.30
2018-04-02T05:21:58.142Z,39.90
2018-04-02T05:22:58.272Z,36.00
2018-04-02T05:23:58.407Z,37.50
2018-04-02T05:24:58.549Z,37.90
2018-04-02T05:25:58.677Z,37.60
2018-04-02T05:26:58.818Z,39.30
2018-04-02T05:27:58.959Z,36.50
2018-04-02T05:28:59.102Z,35.10
2018-04-02T05:29:59.244Z,37.50
2018-04-02T05:30:59.401Z,36.50
2018-04-02T05:31:59.508Z,38.50
2018-04-02T05:32:59.654Z,38.60
2018-04-02T05:33:59.797Z,37.30
2018-04-02T05:34:59.919Z,39.30
2018-04-02T05:36:00.046Z,36.40
2018-04-02T05:37:00.188Z,38.10
2018-04-02T05:38:00.318Z,36.60
2018-04-02T05:39:00.448Z,38.80
2018-04-02T05:40:00.592Z,36.80
2018-04-02T05:41:00.738Z,38.20
2018-04-02T05:42:00.866Z,37.30
2018-04-02T05:43:01.005Z,39.70
2018-04-02T05:44:01.135Z,36.30
2018-04-02T05:45:01.264Z,39.40
2018-04-02T05:46:01.390Z,36.60
2018-04-02T05:47:01.524Z,37.20
2018-04-02T05:48:01.659Z,38.70
2018-04-02T05:49:01.790Z,37.90
2018-04-02T05:50:01.924Z,36.70
2018-04-02T05:51:02.071Z,36.80
2018-04-02T05:52:02.196Z,38.00
2018-04-02T05:53:03.195Z,35.20
2018-04-02T05:54:02.469Z,37.20
2018-04-02T05:55:02.611Z,39.20
2018-04-02T05:56:02.745Z,38.40
2018-04-02T05:57:02.871Z,36.30
2018-04-02T05:58:03.013Z,36.80
2018-04-02T05:59:03.144Z,39.40
2018-04-02T06:00:03.285Z,39.40
2018-04-02T06:01:03.433Z,37.50
2018-04-02T06:02:03.552Z,37.10
2018-04-02T06:03:03.683Z,36.50
2018-04-02T06:04:03.820Z,34.70
2018-04-02T06:05:03.950Z,37.30
2018-04-02T06:06:04.083Z,37.50
2018-04-02T06:07:04.227Z,38.20
2018-04-02T06:08:04.360Z,36.70
2018-04-02T06:09:04.494Z,38.00
2018-04-02T06:10:04.627Z,36.00
2018-04-02T06:11:04.760Z,36.30
2018-04-02T06:12:04.894Z,37.00
2018-04-02T06:13:05.029Z,34.60
2018-04-02T06:14:05.156Z,36.50
2018-04-02T06:15:05.304Z,37.70
2018-04-02T06:16:05.482Z,35.80
2018-04-02T06:17:05.563Z,34.70
2018-04-02T06:18:05.694Z,36.80
2018-04-02T06:19:05.843Z,38.80
2018-04-02T06:20:05.980Z,35.90
2018-04-02T06:21:06.113Z,36.60
2018-04-02T06:22:07.179Z,35.00
2018-04-02T06:23:06.376Z,35.40
2018-04-02T06:24:06.518Z,34.40
2018-04-02T06:25:06.653Z,35.80
2018-04-02T06:26:06.787Z,35.40
2018-04-02T06:27:06.917Z,34.30
2018-04-02T06:28:07.056Z,34.80
2018-04-02T06:29:07.189Z,35.50
2018-04-02T06:30:07.323Z,35.20
2018-04-02T06:31:07.457Z,35.40
2018-04-02T06:32:07.588Z,35.70
2018-04-02T06:33:07.717Z,35.80
2018-04-02T06:34:07.850Z,35.50
2018-04-02T06:35:07.985Z,35.60
2018-04-02T06:36:08.116Z,37.60
2018-04-02T06:37:08.271Z,38.50
2018-04-02T06:38:08.384Z,37.30
2018-04-02T06:39:08.522Z,36.60
2018-04-02T06:40:08.655Z,37.70
2018-04-02T06:41:08.794Z,37.20
2018-04-02T06:42:08.932Z,36.90
2018-04-02T06:43:09.068Z,35.60
2018-04-02T06:44:09.207Z,40.00
2018-04-02T06:45:09.373Z,37.10
2018-04-02T06:46:09.471Z,37.30
2018-04-02T06:47:09.603Z,41.10
2018-04-02T06:48:09.734Z,37.30
2018-04-02T06:49:09.868Z,42.50
2018-04-02T06:50:09.997Z,44.20
2018-04-02T06:51:10.136Z,41.50
2018-04-02T06:52:10.277Z,48.40
2018-04-02T06:53:10.406Z,41.20
2018-04-02T06:54:10.547Z,39.50
2018-04-02T06:55:10.679Z,39.60
2018-04-02T06:56:10.816Z,38.10
2018-04-02T06:57:10.952Z,37.10
2018-04-02T06:58:11.089Z,40.30
2018-04-02T06:59:11.217Z,41.30
2018-04-02T07:00:11.361Z,39.70
2018-04-02T07:01:11.498Z,39.50
2018-04-02T07:02:11.630Z,42.60
2018-04-02T07:03:11.760Z,40.70
2018-04-02T07:04:11.898Z,41.70
2018-04-02T07:05:12.022Z,43.60
2018-04-02T07:06:12.158Z,41.60
2018-04-02T07:07:12.298Z,44.00
2018-04-02T07:08:13.214Z,41.40
2018-04-02T07:09:12.620Z,44.50
2018-04-02T07:10:12.751Z,43.50
2018-04-02T07:11:12.891Z,46.10
2018-04-02T07:12:13.020Z,42.90
2018-04-02T07:13:13.154Z,43.80
2018-04-02T07:14:13.299Z,47.00
2018-04-02T07:15:13.432Z,48.40
2018-04-02T07:16:13.569Z,45.20
2018-04-02T07:17:13.700Z,46.60
2018-04-02T07:18:13.832Z,46.20
2018-04-02T07:19:13.969Z,44.50
2018-04-02T07:20:14.101Z,48.00
2018-04-02T07:21:14.243Z,47.40
2018-04-02T07:22:14.383Z,48.60
2018-04-02T07:23:14.512Z,47.10
2018-04-02T07:24:14.645Z,46.40
2018-04-02T07:25:14.780Z,45.20
2018-04-02T07:26:14.912Z,46.00
2018-04-02T07:27:15.045Z,46.50
2018-04-02T07:28:15.181Z,44.90
2018-04-02T07:29:15.316Z,47.10
2018-04-02T07:30:15.449Z,48.30
2018-04-02T07:31:15.589Z,49.00
2018-04-02T07:32:15.723Z,46.40
2018-04-02T07:33:15.871Z,49.10
2018-04-02T07:34:16.000Z,50.30
2018-04-02T07:35:16.136Z,46.70
2018-04-02T07:36:16.266Z,45.80
2018-04-02T07:37:16.501Z,50.30
2018-04-02T07:38:16.535Z,49.50
2018-04-02T07:39:16.663Z,50.10
2018-04-02T07:40:16.801Z,49.70
2018-04-02T07:41:16.944Z,49.90
2018-04-02T07:42:17.078Z,49.30
2018-04-02T07:43:17.212Z,51.00
2018-04-02T07:44:17.411Z,52.00
2018-04-02T07:45:17.480Z,51.10
2018-04-02T07:46:17.612Z,49.00
2018-04-02T07:47:17.747Z,51.40
2018-04-02T07:48:17.883Z,51.70
2018-04-02T07:49:18.016Z,48.70
2018-04-02T07:50:18.155Z,54.60
2018-04-02T07:51:18.284Z,52.00
2018-04-02T07:52:18.415Z,52.20
2018-04-02T07:53:18.553Z,52.50
2018-04-02T07:54:18.690Z,50.00
2018-04-02T07:55:18.816Z,53.80
2018-04-02T07:56:18.948Z,54.40
2018-04-02T07:57:19.084Z,51.80
2018-04-02T07:58:19.216Z,49.40
2018-04-02T07:59:19.349Z,50.00
2018-04-02T08:00:19.484Z,50.70
2018-04-02T08:01:19.618Z,50.20
2018-04-02T08:02:19.755Z,49.40
2018-04-02T08:03:19.888Z,51.30
2018-04-02T08:04:20.045Z,48.60
2018-04-02T08:05:20.158Z,53.60
2018-04-02T08:06:20.296Z,48.20
2018-04-02T08:07:20.435Z,48.00
2018-04-02T08:08:20.567Z,49.90
2018-04-02T08:09:21.240Z,48.10
2018-04-02T08:10:20.901Z,49.00
2018-04-02T08:11:21.031Z,47.00
2018-04-02T08:12:21.167Z,49.50
2018-04-02T08:13:21.300Z,46.80
2018-04-02T08:14:21.432Z,46.10
2018-04-02T08:15:21.571Z,46.90
2018-04-02T08:16:21.702Z,48.20
2018-04-02T08:17:21.838Z,45.80
2018-04-02T08:18:21.975Z,46.40
2018-04-02T08:19:22.109Z,46.20
2018-04-02T08:20:22.254Z,43.60
2018-04-02T08:21:22.412Z,44.70
2018-04-02T08:22:22.518Z,45.90
2018-04-02T08:23:22.655Z,43.80
2018-04-02T08:24:22.786Z,39.50
2018-04-02T08:25:22.942Z,41.10
2018-04-02T08:26:23.056Z,43.40
2018-04-02T08:27:23.193Z,43.20
2018-04-02T08:28:23.340Z,45.50
2018-04-02T08:29:23.470Z,43.80
2018-04-02T08:30:23.606Z,45.10
2018-04-02T08:31:23.733Z,45.60
2018-04-02T08:32:23.873Z,43.10
2018-04-02T08:33:24.003Z,46.60
2018-04-02T08:34:24.140Z,41.90
2018-04-02T08:35:24.266Z,41.60
2018-04-02T08:36:24.425Z,42.90
2018-04-02T08:37:24.566Z,42.20
2018-04-02T08:38:24.742Z,43.00
2018-04-02T08:39:24.871Z,42.30
2018-04-02T08:40:25.036Z,40.60
2018-04-02T08:41:25.163Z,41.70
2018-04-02T08:42:25.289Z,40.00
2018-04-02T08:43:25.428Z,41.40
2018-04-02T08:44:25.572Z,40.00
2018-04-02T08:45:25.708Z,38.20
2018-04-02T08:46:25.848Z,37.20
2018-04-02T08:47:25.992Z,39.40
2018-04-02T08:48:26.137Z,40.50
2018-04-02T08:49:26.275Z,38.20
2018-04-02T08:50:26.426Z,38.70
2018-04-02T08:51:26.576Z,40.20
2018-04-02T08:52:26.711Z,35.90
2018-04-02T08:53:26.861Z,38.60
2018-04-02T08:54:27.001Z,37.30
2018-04-02T08:55:27.139Z,37.60
2018-04-02T08:56:27.275Z,39.90
2018-04-02T08:57:27.411Z,38.60
2018-04-02T08:58:27.542Z,38.70
2018-04-02T08:59:27.681Z,36.90
2018-04-02T09:00:27.826Z,37.40
2018-04-02T09:01:27.973Z,36.00
2018-04-02T09:02:28.112Z,34.90
2018-04-02T09:03:28.245Z,36.70
2018-04-02T09:04:28.382Z,36.80
2018-04-02T09:05:28.518Z,34.90
2018-04-02T09:06:28.664Z,35.70
2018-04-02T09:07:28.802Z,35.90
2018-04-02T09:08:28.936Z,36.30
2018-04-02T09:09:29.079Z,37.00
2018-04-02T09:10:29.211Z,35.60
2018-04-02T09:11:29.353Z,35.30
2018-04-02T09:12:29.485Z,37.50
2018-04-02T09:13:29.618Z,36.90
2018-04-02T09:14:29.750Z,36.70
2018-04-02T09:15:29.879Z,35.20
2018-04-02T09:16:30.026Z,35.10
2018-04-02T09:17:30.162Z,34.30
2018-04-02T09:18:30.303Z,35.20
2018-04-02T09:19:30.447Z,34.00
2018-04-02T09:20:30.588Z,34.50
2018-04-02T09:21:30.715Z,34.20
2018-04-02T09:22:30.863Z,34.50
2018-04-02T09:23:30.999Z,34.20
2018-04-02T09:24:31.134Z,34.00
2018-04-02T09:25:31.274Z,33.60
2018-04-02T09:26:31.409Z,33.90
2018-04-02T09:27:31.539Z,32.80
2018-04-02T09:28:31.676Z,33.30
2018-04-02T09:29:31.812Z,34.20
2018-04-02T09:30:31.948Z,33.30
2018-04-02T09:31:32.082Z,31.00
2018-04-02T09:32:32.221Z,33.30
2018-04-02T09:33:32.442Z,31.40
2018-04-02T09:34:32.442Z,32.50
2018-04-02T09:35:32.583Z,32.60
2018-04-02T09:36:32.716Z,33.90
2018-04-02T09:37:32.882Z,30.50
2018-04-02T09:38:33.016Z,30.10
2018-04-02T09:39:33.154Z,28.90
2018-04-02T09:40:33.294Z,32.90
2018-04-02T09:41:33.427Z,32.60
2018-04-02T09:42:33.573Z,34.10
2018-04-02T09:43:33.712Z,30.10
2018-04-02T09:44:33.851Z,29.90
2018-04-02T09:45:33.982Z,27.10
2018-04-02T09:46:34.123Z,29.40
2018-04-02T09:47:34.259Z,28.20
2018-04-02T09:48:34.402Z,26.20
2018-04-02T09:49:34.539Z,25.30
2018-04-02T09:50:34.672Z,26.00
2018-04-02T09:51:34.829Z,26.70
2018-04-02T09:52:34.969Z,26.20
2018-04-02T09:53:35.098Z,27.20
2018-04-02T09:54:35.235Z,25.80
2018-04-02T09:55:35.372Z,27.00
2018-04-02T09:56:35.509Z,26.30
2018-04-02T09:57:35.643Z,24.70
2018-04-02T09:58:35.782Z,24.30
2018-04-02T09:59:35.919Z,25.10
2018-04-02T10:00:36.109Z,23.70
2018-04-02T10:01:36.143Z,23.80
2018-04-02T10:02:36.278Z,25.00
2018-04-02T10:03:36.428Z,23.70
2018-04-02T10:04:36.639Z,22.80
2018-04-02T10:05:36.682Z,22.60
2018-04-02T10:06:36.816Z,22.70
2018-04-02T10:07:36.948Z,20.50
2018-04-02T10:08:37.090Z,20.00
2018-04-02T10:09:37.228Z,19.60
2018-04-02T10:10:37.394Z,20.10
2018-04-02T10:11:37.491Z,20.30
2018-04-02T10:12:37.644Z,20.80
2018-04-02T10:13:37.773Z,20.00
2018-04-02T10:14:37.911Z,19.70
2018-04-02T10:15:38.100Z,19.70
2018-04-02T10:16:38.186Z,19.50
2018-04-02T10:17:38.328Z,19.80
2018-04-02T10:18:38.567Z,20.40
2018-04-02T10:19:38.581Z,20.40
2018-04-02T10:20:39.484Z,23.00
2018-04-02T10:21:38.897Z,19.70
2018-04-02T10:22:38.910Z,18.70
2018-04-02T10:23:39.049Z,19.60
2018-04-02T10:24:39.188Z,18.40
2018-04-02T10:25:39.324Z,17.20
2018-04-02T10:26:39.460Z,16.90
2018-04-02T10:27:39.592Z,16.90
2018-04-02T10:28:39.732Z,15.90
2018-04-02T10:29:39.886Z,15.40
2018-04-02T10:30:40.003Z,15.70
2018-04-02T10:31:40.148Z,15.50
2018-04-02T10:32:40.293Z,16.20
2018-04-02T10:33:40.414Z,15.80
2018-04-02T10:34:40.547Z,15.80
2018-04-02T10:35:40.702Z,14.70
2018-04-02T10:36:40.847Z,14.60
2018-04-02T10:37:40.982Z,14.80
2018-04-02T10:38:41.114Z,14.00
2018-04-02T10:39:41.252Z,14.00
2018-04-02T10:40:41.386Z,14.40
2018-04-02T10:41:41.526Z,12.50
2018-04-02T10:42:41.658Z,13.50
2018-04-02T10:43:41.796Z,13.90
2018-04-02T10:44:41.930Z,13.90
2018-04-02T10:45:42.071Z,15.00
2018-04-02T10:46:42.948Z,12.50
2018-04-02T10:47:42.331Z,13.80
2018-04-02T10:48:42.477Z,13.40
2018-04-02T10:49:42.613Z,12.10
2018-04-02T10:50:42.749Z,10.90
2018-04-02T10:51:42.884Z,11.40
2018-04-02T10:52:43.036Z,10.50
2018-04-02T10:53:43.171Z,10.40
2018-04-02T10:54:43.313Z,11.00
2018-04-02T10:55:43.455Z,9.90
2018-04-02T10:56:43.588Z,9.80
2018-04-02T10:57:43.734Z,10.20
2018-04-02T10:58:43.870Z,10.10
2018-04-02T10:59:44.082Z,10.30
2018-04-02T11:00:44.200Z,9.50
2018-04-02T11:01:44.330Z,9.40
2018-04-02T11:02:44.468Z,9.30
2018-04-02T11:03:44.612Z,9.00
2018-04-02T11:04:44.783Z,9.70
2018-04-02T11:05:44.970Z,9.90
2018-04-02T11:06:45.069Z,10.30
2018-04-02T11:07:45.219Z,10.00
2018-04-02T11:08:45.367Z,9.30
2018-04-02T11:09:45.509Z,8.50
2018-04-02T11:10:45.680Z,9.80
2018-04-02T11:11:45.813Z,9.40
2018-04-02T11:12:45.959Z,8.70
2018-04-02T11:13:46.103Z,9.90
2018-04-02T11:14:46.237Z,9.40
2018-04-02T11:15:46.383Z,9.80
2018-04-02T11:16:46.521Z,9.30
2018-04-02T11:17:46.671Z,9.70
2018-04-02T11:18:46.852Z,9.20
2018-04-02T11:19:46.995Z,8.50
2018-04-02T11:20:47.136Z,8.40
2018-04-02T11:21:47.280Z,9.10
2018-04-02T11:22:47.418Z,9.50
2018-04-02T11:23:47.614Z,9.00
2018-04-02T11:24:47.705Z,8.80
2018-04-02T11:25:47.851Z,9.50
2018-04-02T11:26:47.999Z,8.60
2018-04-02T11:27:48.138Z,8.60
2018-04-02T11:28:48.283Z,8.20
2018-04-02T11:29:48.431Z,8.30
2018-04-02T11:30:48.570Z,9.00
2018-04-02T11:31:48.709Z,9.00
2018-04-02T11:32:48.845Z,8.80
2018-04-02T11:33:48.997Z,10.30
2018-04-02T11:34:49.138Z,24.20
2018-04-02T11:35:49.309Z,17.20
2018-04-02T11:36:49.434Z,58.10
2018-04-02T11:37:49.574Z,141.90
2018-04-02T11:38:49.717Z,37.10
2018-04-02T11:39:49.855Z,7.80
2018-04-02T11:40:49.998Z,7.40
2018-04-02T11:41:50.140Z,8.00
2018-04-02T11:42:50.299Z,6.90
2018-04-02T11:43:50.424Z,7.50
2018-04-02T11:44:50.568Z,7.20
2018-04-02T11:45:50.713Z,6.50
2018-04-02T11:46:50.859Z,7.20
2018-04-02T11:47:51.000Z,7.30
2018-04-02T11:48:51.148Z,7.60
2018-04-02T11:49:51.308Z,7.40
2018-04-02T11:50:51.444Z,7.50
2018-04-02T11:51:51.588Z,7.20
2018-04-02T11:52:51.738Z,7.60
2018-04-02T11:53:51.874Z,7.50
2018-04-02T11:54:52.016Z,7.50
2018-04-02T11:55:52.166Z,7.10
2018-04-02T11:56:52.318Z,6.90
2018-04-02T11:57:52.452Z,6.80
2018-04-02T11:58:52.602Z,7.40
2018-04-02T11:59:52.748Z,6.70
2018-04-02T12:00:52.890Z,6.30
2018-04-02T12:01:53.039Z,6.80
2018-04-02T12:02:53.183Z,6.70
2018-04-02T12:03:53.329Z,6.50
2018-04-02T12:04:53.470Z,6.80
2018-04-02T12:05:53.613Z,7.00
2018-04-02T12:06:53.755Z,7.70
2018-04-02T12:07:53.898Z,6.60
2018-04-02T12:08:54.043Z,6.40
2018-04-02T12:09:54.188Z,6.00
2018-04-02T12:10:54.333Z,5.50
2018-04-02T12:11:54.478Z,5.90
2018-04-02T12:12:54.628Z,5.80
2018-04-02T12:13:54.769Z,5.80
2018-04-02T12:14:54.917Z,6.00
2018-04-02T12:15:55.068Z,5.80
2018-04-02T12:16:55.257Z,6.80
2018-04-02T12:17:55.401Z,5.70
2018-04-02T12:18:55.542Z,5.90
2018-04-02T12:19:55.684Z,6.40
2018-04-02T12:20:55.841Z,6.80
2018-04-02T12:21:55.973Z,6.00
2018-04-02T12:22:56.118Z,6.70
2018-04-02T12:23:56.257Z,6.00
2018-04-02T12:24:56.411Z,6.00
2018-04-02T12:25:56.619Z,6.70
2018-04-02T12:26:56.705Z,6.00
2018-04-02T12:27:56.849Z,6.00
2018-04-02T12:28:57.003Z,6.30
2018-04-02T12:29:57.153Z,6.10
2018-04-02T12:30:57.293Z,6.30
2018-04-02T12:31:57.427Z,6.80
2018-04-02T12:32:57.578Z,6.40
2018-04-02T12:33:57.718Z,7.30
2018-04-02T12:34:57.862Z,6.60
2018-04-02T12:35:58.005Z,9.70
2018-04-02T12:36:58.158Z,8.00
2018-04-02T12:37:58.304Z,8.10
2018-04-02T12:38:58.445Z,8.70
2018-04-02T12:39:58.603Z,8.40
2018-04-02T12:40:58.746Z,7.60
2018-04-02T12:41:58.880Z,7.40
2018-04-02T12:42:59.028Z,6.50
2018-04-02T12:43:59.218Z,7.10
2018-04-02T12:44:59.353Z,7.90
2018-04-02T12:45:59.486Z,7.30
2018-04-02T12:46:59.632Z,7.20
2018-04-02T12:47:59.776Z,7.20
2018-04-02T12:48:59.927Z,7.20
2018-04-02T12:50:00.068Z,6.70
2018-04-02T12:51:00.208Z,6.70
2018-04-02T12:52:00.380Z,6.60
2018-04-02T12:53:00.520Z,6.70
2018-04-02T12:54:00.675Z,6.60
2018-04-02T12:55:00.817Z,7.20
2018-04-02T12:56:00.967Z,6.80
2018-04-02T12:57:01.112Z,6.70
2018-04-02T12:58:01.259Z,7.10